Amsterdam — PBAD — position and weather

sailwx.info

Track history (hours):
 
Tides and Currents Weather Stations Pressure Air Temp Water Temp Dewpoint Dewpoint Depression Visibility Wind Speed Wind Dir Waves Ship Positions

Amsterdam

Operator: Holland America Line

Last reported at 2016-Aug-29 18:00 UTC. Time now 2016-Aug-30 07:25 UTC.
Position N 51°12' W 130°18'.

Type: Ship. MMSI: 244370000.

Wind from 170 at 20 knots

Waves 1.5 meters (5 feet), 4 second period

Barometer 1008.7 mb
Air temperature 14.5 ° C
Visibility: greater than 5.4 NM
Dewpoint 13.6 ° C
Water temperature 15.0 ° C

Date/timePositionNaut miles runAvg speedWind from/ knotsBaromVisibWave heightAir tempDewpointWater temp
2016-Aug-29 18:00N 51°12' W 130°18'16121.4 170 / 201008.7 5.4 1.514.513.615.0
2016-Aug-29 10:30N 49°25' W 127°10'1920.7
2016-Aug-29 09:34N 49°13' W 126°47'2121.4
2016-Aug-29 08:33N 48°60' W 126°21'2222.0
2016-Aug-29 07:33N 48°46' W 125°55'2121.4
2016-Aug-29 06:33N 48°35' W 125°27'2120.6
2016-Aug-29 05:33N 48°31' W 124°57'2320.9
2016-Aug-29 04:28N 48°25' W 124°23'1920.9
2016-Aug-29 03:32N 48°18' W 123°56'2121.1
2016-Aug-29 02:34N 48°13' W 123°26'1515.2
2016-Aug-29 01:33N 48°13' W 123°03'1627.9
2016-Aug-29 01:00N 48°06' W 122°42'4 9.4 340 / 121017.410.8 14.014.013.0
2016-Aug-29 00:33N 48°03' W 122°38'1919.6
2016-Aug-28 23:33N 47°45' W 122°26'8 7.4
2016-Aug-28 22:31N 47°38' W 122°23'0 0.0
2016-Aug-28 21:31N 47°38' W 122°23'0 0.0
2016-Aug-28 20:32N 47°38' W 122°23'0 0.0
2016-Aug-28 19:31N 47°38' W 122°23'0 0.0
2016-Aug-28 18:31N 47°38' W 122°23'0 0.0
2016-Aug-28 17:32N 47°38' W 122°23'0 0.0
2016-Aug-28 16:31N 47°38' W 122°23'0 0.0
2016-Aug-28 15:31N 47°38' W 122°23'0 0.0
2016-Aug-28 14:31N 47°38' W 122°23'0 0.0
2016-Aug-28 13:28N 47°38' W 122°23'3 3.1
2016-Aug-28 12:33N 47°38' W 122°27'1211.8
2016-Aug-28 11:33N 47°50' W 122°28'1211.8
2016-Aug-28 10:33N 48°00' W 122°38'1312.3
2016-Aug-28 09:31N 48°11' W 122°49'1414.6
2016-Aug-28 08:33N 48°12' W 123°09'1313.5
2016-Aug-28 07:34N 48°12' W 123°30'1313.0
2016-Aug-28 06:33N 48°25' W 123°24'1 0.5
2016-Aug-28 05:33N 48°25' W 123°23'0 0.0
2016-Aug-28 04:33N 48°25' W 123°23'0 0.0
2016-Aug-28 03:33N 48°25' W 123°23'0 0.0
2016-Aug-28 02:33N 48°25' W 123°23'0 0.0
2016-Aug-28 01:33N 48°25' W 123°23'0 0.3
2016-Aug-28 00:33N 48°25' W 123°24'1111.1
2016-Aug-27 23:33N 48°14' W 123°28'1616.3
2016-Aug-27 22:33N 48°13' W 123°53'3818.9
2016-Aug-27 20:33N 48°29' W 124°45'2020.4
2016-Aug-27 19:33N 48°30' W 125°15'2222.1
2016-Aug-27 18:33N 48°42' W 125°44'2020.1
2016-Aug-27 17:33N 48°53' W 126°09'2222.0
2016-Aug-27 16:34N 49°07' W 126°35'2222.4
2016-Aug-27 15:33N 49°21' W 127°01'2423.1
2016-Aug-27 14:31N 49°36' W 127°30'1018.5
2016-Aug-27 14:00N 49°42' W 127°42'24222.0 320 / 221011.110.8 0.514.013.616.0
2016-Aug-27 03:00N 53°18' W 130°36'278 7.5 320 / 301012.110.8 2.014.012.211.0
2016-Aug-25 14:00N 56°54' W 135°42'20917.4 360 / 51032.2 0.1 0.514.014.020.0
2016-Aug-25 02:00N 59°36' W 139°54'137 9.5 170 / 111032.8 0.5 1.015.015.013.0
2016-Aug-24 11:33N 58°18' W 136°17'1414.5
2016-Aug-24 10:33N 58°19' W 135°49'1716.7
2016-Aug-24 09:31N 58°13' W 135°18'54 3.5
2016-Aug-23 18:00N 57°48' W 133°48'222111.1 110 / 111026.2 5.4 0.512.511.615.0
2016-Aug-23 16:00N 54°06' W 134°00'63 4.8 100 / 91025.2 5.4 0.512.512.514.0
2016-Aug-23 03:00N 53°12' W 133°06'18720.7 250 / 31022.6 5.4 0.516.014.315.0
2016-Aug-22 18:00N 50°54' W 129°42'12520.8 360 / 161019.9 5.4 1.015.014.116.0
2016-Aug-22 12:00N 49°30' W 127°18'914.0 320 / 251016.0 5.4 1.513.213.214.8
2016-Aug-22 11:20N 49°24' W 127°07'1620.3
2016-Aug-22 10:34N 49°14' W 126°48'2020.2
2016-Aug-22 09:33N 49°01' W 126°24'2019.9
2016-Aug-22 08:33N 48°49' W 126°01'2120.6
2016-Aug-22 07:33N 48°38' W 125°35'1729.7
2016-Aug-22 07:00N 48°30' W 125°12'4 9.1 320 / 271013.2 5.4 2.513.512.614.5
2016-Aug-22 06:33N 48°31' W 125°06'2121.3
2016-Aug-22 05:33N 48°28' W 124°34'2221.7
2016-Aug-22 04:33N 48°20' W 124°04'2120.9
2016-Aug-22 03:33N 48°16' W 123°33'1312.7
2016-Aug-22 02:33N 48°10' W 123°16'1527.3
2016-Aug-22 02:00N 48°12' W 122°54'4 8.2 230 / 301011.410.8 1.015.011.312.0
2016-Aug-22 01:33N 48°11' W 122°49'1716.6
2016-Aug-22 00:33N 47°58' W 122°34'1818.4
2016-Aug-21 23:34N 47°40' W 122°27'4 3.8
2016-Aug-21 22:32N 47°38' W 122°23'0 0.0
2016-Aug-21 21:31N 47°38' W 122°23'0 0.0
2016-Aug-21 20:32N 47°38' W 122°23'0 0.0
2016-Aug-21 19:31N 47°38' W 122°23'0 0.0
2016-Aug-21 18:31N 47°38' W 122°23'0 0.0
2016-Aug-21 17:32N 47°38' W 122°23'0 0.0
2016-Aug-21 16:31N 47°38' W 122°23'0 0.0
2016-Aug-21 15:31N 47°38' W 122°23'0 0.0
2016-Aug-21 14:32N 47°38' W 122°23'0 0.0
2016-Aug-21 13:31N 47°38' W 122°23'4 3.7
2016-Aug-21 12:33N 47°39' W 122°28'1212.0
2016-Aug-21 11:34N 47°51' W 122°28'1212.0
2016-Aug-21 10:33N 48°01' W 122°38'1212.3
2016-Aug-21 09:33N 48°11' W 122°50'1413.5
2016-Aug-21 08:33N 48°12' W 123°10'1212.0
2016-Aug-21 07:34N 48°11' W 123°28'1313.0
2016-Aug-21 06:33N 48°24' W 123°24'1 0.8
2016-Aug-21 05:31N 48°25' W 123°23'0 0.0
2016-Aug-21 04:28N 48°25' W 123°23'0 0.0
2016-Aug-21 03:31N 48°25' W 123°23'0 0.0
2016-Aug-21 02:32N 48°25' W 123°23'0 0.0
2016-Aug-21 01:32N 48°25' W 123°23'1 0.8
2016-Aug-21 00:33N 48°25' W 123°25'1312.5
2016-Aug-20 23:33N 48°14' W 123°33'2120.9
2016-Aug-20 22:33N 48°16' W 124°04'2121.5
2016-Aug-20 21:33N 48°26' W 124°33'2120.5
2016-Aug-20 20:33N 48°29' W 125°04'2020.5
2016-Aug-20 19:34N 48°37' W 125°32'2120.5
2016-Aug-20 18:33N 48°48' W 125°59'2020.4
2016-Aug-20 17:33N 49°01' W 126°23'2120.9
2016-Aug-20 16:34N 49°14' W 126°48'2120.8
2016-Aug-20 15:34N 49°27' W 127°12'7420.8
2016-Aug-20 12:00N 50°18' W 128°36'9423.4 350 / 131017.6 0.0 0.513.413.215.0
2016-Aug-20 08:00N 51°42' W 129°42'10821.7 290 / 191018.8 5.4 0.516.016.017.5
2016-Aug-20 03:00N 53°24' W 130°42'   360 / 181020.510.8 14.014.011.0
Track history (hours):
 
Tides and Currents Weather Stations Pressure Air Temp Water Temp Dewpoint Dewpoint Depression Visibility Wind Speed Wind Dir Waves Ship Positions

Amsterdam

Operator: Holland America Line

Last reported at 2016-Aug-29 18:00 UTC. Time now 2016-Aug-30 07:25 UTC.
Position N 51°12' W 130°18'.

Type: Ship. MMSI: 244370000.

Wind from 170 at 20 knots

Waves 1.5 meters (5 feet), 4 second period

Barometer 1008.7 mb
Air temperature 14.5 ° C
Visibility: greater than 5.4 NM
Dewpoint 13.6 ° C
Water temperature 15.0 ° C

Date/timePositionNaut miles runAvg speedWind from/ knotsBaromVisibWave heightAir tempDewpointWater temp
2016-Aug-29 18:00N 51°12' W 130°18'16121.4 170 / 201008.7 5.4 1.514.513.615.0
2016-Aug-29 10:30N 49°25' W 127°10'1920.7
2016-Aug-29 09:34N 49°13' W 126°47'2121.4
2016-Aug-29 08:33N 48°60' W 126°21'2222.0
2016-Aug-29 07:33N 48°46' W 125°55'2121.4
2016-Aug-29 06:33N 48°35' W 125°27'2120.6
2016-Aug-29 05:33N 48°31' W 124°57'2320.9
2016-Aug-29 04:28N 48°25' W 124°23'1920.9
2016-Aug-29 03:32N 48°18' W 123°56'2121.1
2016-Aug-29 02:34N 48°13' W 123°26'1515.2
2016-Aug-29 01:33N 48°13' W 123°03'1627.9
2016-Aug-29 01:00N 48°06' W 122°42'4 9.4 340 / 121017.410.8 14.014.013.0
2016-Aug-29 00:33N 48°03' W 122°38'1919.6
2016-Aug-28 23:33N 47°45' W 122°26'8 7.4
2016-Aug-28 22:31N 47°38' W 122°23'0 0.0
2016-Aug-28 21:31N 47°38' W 122°23'0 0.0
2016-Aug-28 20:32N 47°38' W 122°23'0 0.0
2016-Aug-28 19:31N 47°38' W 122°23'0 0.0
2016-Aug-28 18:31N 47°38' W 122°23'0 0.0
2016-Aug-28 17:32N 47°38' W 122°23'0 0.0
2016-Aug-28 16:31N 47°38' W 122°23'0 0.0
2016-Aug-28 15:31N 47°38' W 122°23'0 0.0
2016-Aug-28 14:31N 47°38' W 122°23'0 0.0
2016-Aug-28 13:28N 47°38' W 122°23'3 3.1
2016-Aug-28 12:33N 47°38' W 122°27'1211.8
2016-Aug-28 11:33N 47°50' W 122°28'1211.8
2016-Aug-28 10:33N 48°00' W 122°38'1312.3
2016-Aug-28 09:31N 48°11' W 122°49'1414.6
2016-Aug-28 08:33N 48°12' W 123°09'1313.5
2016-Aug-28 07:34N 48°12' W 123°30'1313.0
2016-Aug-28 06:33N 48°25' W 123°24'1 0.5
2016-Aug-28 05:33N 48°25' W 123°23'0 0.0
2016-Aug-28 04:33N 48°25' W 123°23'0 0.0
2016-Aug-28 03:33N 48°25' W 123°23'0 0.0
2016-Aug-28 02:33N 48°25' W 123°23'0 0.0
2016-Aug-28 01:33N 48°25' W 123°23'0 0.3
2016-Aug-28 00:33N 48°25' W 123°24'1111.1
2016-Aug-27 23:33N 48°14' W 123°28'1616.3
2016-Aug-27 22:33N 48°13' W 123°53'3818.9
2016-Aug-27 20:33N 48°29' W 124°45'2020.4
2016-Aug-27 19:33N 48°30' W 125°15'2222.1
2016-Aug-27 18:33N 48°42' W 125°44'2020.1
2016-Aug-27 17:33N 48°53' W 126°09'2222.0
2016-Aug-27 16:34N 49°07' W 126°35'2222.4
2016-Aug-27 15:33N 49°21' W 127°01'2423.1
2016-Aug-27 14:31N 49°36' W 127°30'1018.5
2016-Aug-27 14:00N 49°42' W 127°42'24222.0 320 / 221011.110.8 0.514.013.616.0
2016-Aug-27 03:00N 53°18' W 130°36'278 7.5 320 / 301012.110.8 2.014.012.211.0
2016-Aug-25 14:00N 56°54' W 135°42'20917.4 360 / 51032.2 0.1 0.514.014.020.0
2016-Aug-25 02:00N 59°36' W 139°54'137 9.5 170 / 111032.8 0.5 1.015.015.013.0
2016-Aug-24 11:33N 58°18' W 136°17'1414.5
2016-Aug-24 10:33N 58°19' W 135°49'1716.7
2016-Aug-24 09:31N 58°13' W 135°18'54 3.5
2016-Aug-23 18:00N 57°48' W 133°48'222111.1 110 / 111026.2 5.4 0.512.511.615.0
2016-Aug-23 16:00N 54°06' W 134°00'63 4.8 100 / 91025.2 5.4 0.512.512.514.0
2016-Aug-23 03:00N 53°12' W 133°06'18720.7 250 / 31022.6 5.4 0.516.014.315.0
2016-Aug-22 18:00N 50°54' W 129°42'12520.8 360 / 161019.9 5.4 1.015.014.116.0
2016-Aug-22 12:00N 49°30' W 127°18'914.0 320 / 251016.0 5.4 1.513.213.214.8
2016-Aug-22 11:20N 49°24' W 127°07'1620.3
2016-Aug-22 10:34N 49°14' W 126°48'2020.2
2016-Aug-22 09:33N 49°01' W 126°24'2019.9
2016-Aug-22 08:33N 48°49' W 126°01'2120.6
2016-Aug-22 07:33N 48°38' W 125°35'1729.7
2016-Aug-22 07:00N 48°30' W 125°12'4 9.1 320 / 271013.2 5.4 2.513.512.614.5
2016-Aug-22 06:33N 48°31' W 125°06'2121.3
2016-Aug-22 05:33N 48°28' W 124°34'2221.7
2016-Aug-22 04:33N 48°20' W 124°04'2120.9
2016-Aug-22 03:33N 48°16' W 123°33'1312.7
2016-Aug-22 02:33N 48°10' W 123°16'1527.3
2016-Aug-22 02:00N 48°12' W 122°54'4 8.2 230 / 301011.410.8 1.015.011.312.0
2016-Aug-22 01:33N 48°11' W 122°49'1716.6
2016-Aug-22 00:33N 47°58' W 122°34'1818.4
2016-Aug-21 23:34N 47°40' W 122°27'4 3.8
2016-Aug-21 22:32N 47°38' W 122°23'0 0.0
2016-Aug-21 21:31N 47°38' W 122°23'0 0.0
2016-Aug-21 20:32N 47°38' W 122°23'0 0.0
2016-Aug-21 19:31N 47°38' W 122°23'0 0.0
2016-Aug-21 18:31N 47°38' W 122°23'0 0.0
2016-Aug-21 17:32N 47°38' W 122°23'0 0.0
2016-Aug-21 16:31N 47°38' W 122°23'0 0.0
2016-Aug-21 15:31N 47°38' W 122°23'0 0.0
2016-Aug-21 14:32N 47°38' W 122°23'0 0.0
2016-Aug-21 13:31N 47°38' W 122°23'4 3.7
2016-Aug-21 12:33N 47°39' W 122°28'1212.0
2016-Aug-21 11:34N 47°51' W 122°28'1212.0
2016-Aug-21 10:33N 48°01' W 122°38'1212.3
2016-Aug-21 09:33N 48°11' W 122°50'1413.5
2016-Aug-21 08:33N 48°12' W 123°10'1212.0
2016-Aug-21 07:34N 48°11' W 123°28'1313.0
2016-Aug-21 06:33N 48°24' W 123°24'1 0.8
2016-Aug-21 05:31N 48°25' W 123°23'0 0.0
2016-Aug-21 04:28N 48°25' W 123°23'0 0.0
2016-Aug-21 03:31N 48°25' W 123°23'0 0.0
2016-Aug-21 02:32N 48°25' W 123°23'0 0.0
2016-Aug-21 01:32N 48°25' W 123°23'1 0.8
2016-Aug-21 00:33N 48°25' W 123°25'1312.5
2016-Aug-20 23:33N 48°14' W 123°33'2120.9
2016-Aug-20 22:33N 48°16' W 124°04'2121.5
2016-Aug-20 21:33N 48°26' W 124°33'2120.5
2016-Aug-20 20:33N 48°29' W 125°04'2020.5
2016-Aug-20 19:34N 48°37' W 125°32'2120.5
2016-Aug-20 18:33N 48°48' W 125°59'2020.4
2016-Aug-20 17:33N 49°01' W 126°23'2120.9
2016-Aug-20 16:34N 49°14' W 126°48'2120.8
2016-Aug-20 15:34N 49°27' W 127°12'7420.8
2016-Aug-20 12:00N 50°18' W 128°36'9423.4 350 / 131017.6 0.0 0.513.413.215.0
2016-Aug-20 08:00N 51°42' W 129°42'10821.7 290 / 191018.8 5.4 0.516.016.017.5
2016-Aug-20 03:00N 53°24' W 130°42'   360 / 181020.510.8 14.014.011.0

Dump ship's entire track history